Flight Track Log - Related Links

Times and Time Zones

All times are in EDT time to prevent confusion due to time zone crossing. See the SWA414 flight status page for this flight to view local times or setup timezone preferences in your user account.

Time Position Orientation Groundspeed Altitude Reporting Facility
EDT Latitude Longitude Course Direction KTS MPH feet Rate Location/Type
Wed 06:47:45 PM 41.8000 -87.7167 207° Southwest 155 178 2,200  Level Chicago TRACON
Wed 06:49:50 PM 41.6994 -87.6700 161° South 248 285 5,800 1,404 Climbing Chicago Center
Wed 06:50:53 PM 41.6314 -87.7275 212° Southwest 257 296 6,600 1,104 Climbing Chicago Center
Wed 06:51:55 PM 41.5881 -87.8108 235° Southwest 272 313 8,100 1,548 Climbing Chicago Center
Wed 06:52:57 PM 41.5456 -87.8950 236° Southwest 275 316 9,800 1,403 Climbing Chicago Center
Wed 06:53:00 PM 41.3735 -88.1733 207° Southwest  Level FlightAware Approximate
Wed 06:53:59 PM 41.5025 -87.9794 236° Southwest 277 319 11,000  Level Chicago Center
Wed 06:55:01 PM 41.4356 -88.0606 222° Southwest 327 376 12,900 968 Climbing Chicago Center
Wed 06:56:03 PM 41.3469 -88.1064 201° Southwest 343 395 13,000 435 Climbing Chicago Center
Wed 06:57:05 PM 41.2686 -88.1711 212° Southwest 341 392 13,800 2,274 Climbing Chicago Center
Wed 06:58:07 PM 41.1708 -88.2514 212° Southwest 356 410 17,700 3,484 Climbing Chicago Center
Wed 06:59:09 PM 41.0731 -88.2994 200° South 373 429 21,000 3,145 Climbing Chicago Center
Wed 07:00:11 PM 40.9706 -88.3486 200° South 390 449 24,200 2,855 Climbing Chicago Center
Wed 07:01:13 PM 40.8661 -88.4083 203° Southwest 408 470 26,900 2,400 Climbing Chicago Center
Wed 07:02:16 PM 40.7764 -88.5072 220° Southwest 417 480 29,200 2,352 Climbing Chicago Center
Wed 07:03:18 PM 40.6656 -88.6264 219° Southwest 430 495 31,800 2,323 Climbing Chicago Center
Wed 07:04:20 PM 40.5842 -88.7369 226° Southwest 425 489 34,000 1,065 Climbing Chicago Center
Wed 07:05:22 PM 40.5081 -88.8550 230° Southwest 423 487 34,000 435 Level Chicago Center
Wed 07:06:24 PM 40.4244 -88.9817 229° Southwest 423 487 34,900 1,597 Climbing Chicago Center
Wed 07:07:26 PM 40.3486 -89.0953 229° Southwest 415 478 37,300 1,790 Climbing Chicago Center
Wed 07:08:28 PM 40.2747 -89.2078 229° Southwest 409 471 38,600 1,161 Climbing Chicago Center
Wed 07:09:30 PM 40.1978 -89.3225 229° Southwest 417 480 39,700 677 Climbing Chicago Center
Wed 07:10:32 PM 40.1219 -89.4375 229° Southwest 417 480 40,000 145 Climbing Chicago Center
Wed 07:11:34 PM 40.0453 -89.5497 228° Southwest 413 475 40,000  Level Chicago Center
Wed 07:12:17 PM 39.9836 -89.6453 230° Southwest 417 480 40,000  Level Kansas City Center
Wed 07:13:19 PM 39.9069 -89.7586 229° Southwest 416 479 40,000  Level Kansas City Center
Wed 07:14:21 PM 39.8311 -89.8708 229° Southwest 413 475 40,000  Level Kansas City Center
Wed 07:15:23 PM 39.7547 -89.9833 229° Southwest 413 475 40,000  Level Kansas City Center
Wed 07:16:25 PM 39.6775 -90.0969 229° Southwest 413 475 40,000  Level Kansas City Center
Wed 07:17:27 PM 39.6022 -90.2089 229° Southwest 414 476 40,000  Level Kansas City Center
Wed 07:18:29 PM 39.5100 -90.3425 228° Southwest 415 478 40,000  Level Kansas City Center
Wed 07:19:30 PM 39.4331 -90.4547 228° Southwest 417 480 40,000  Level Kansas City Center
Wed 07:20:32 PM 39.3569 -90.5661 229° Southwest 417 480 40,000  Level Kansas City Center
Wed 07:21:34 PM 39.2789 -90.6775 228° Southwest 420 483 40,000  Level Kansas City Center
Wed 07:22:36 PM 39.2039 -90.7867 228° Southwest 414 476 40,000  Level Kansas City Center
Wed 07:23:38 PM 39.1122 -90.9181 228° Southwest 414 476 40,000  Level Kansas City Center
Wed 07:24:40 PM 39.0364 -91.0272 228° Southwest 413 475 40,000  Level Kansas City Center
Wed 07:25:41 PM 38.9600 -91.1356 228° Southwest 413 475 40,000  Level Kansas City Center
Wed 07:26:43 PM 38.8842 -91.2447 228° Southwest 413 475 40,000  Level Kansas City Center
Wed 07:27:45 PM 38.8067 -91.3531 227° Southwest 413 475 40,000  Level Kansas City Center
Wed 07:28:47 PM 38.7308 -91.4606 228° Southwest 411 473 40,000  Level Kansas City Center
Wed 07:29:49 PM 38.6436 -91.5831 228° Southwest 408 470 40,000  Level Kansas City Center
Wed 07:30:50 PM 38.5656 -91.6906 227° Southwest 409 471 40,000  Level Kansas City Center
Wed 07:31:52 PM 38.4886 -91.7994 228° Southwest 411 473 40,000  Level Kansas City Center
Wed 07:32:54 PM 38.4094 -91.9078 227° Southwest 415 478 40,000  Level Kansas City Center
Wed 07:33:56 PM 38.3150 -92.0381 227° Southwest 416 479 40,000  Level Kansas City Center
Wed 07:34:57 PM 38.2361 -92.1456 227° Southwest 415 478 40,000  Level Kansas City Center
Wed 07:35:59 PM 38.1556 -92.2561 227° Southwest 415 478 40,000  Level Kansas City Center
Wed 07:37:01 PM 38.0753 -92.3647 227° Southwest 419 482 40,000  Level Kansas City Center
Wed 07:38:03 PM 37.9975 -92.4731 228° Southwest 419 482 40,000  Level Kansas City Center
Wed 07:39:04 PM 37.9217 -92.5789 228° Southwest 413 475 40,000  Level Kansas City Center
Wed 07:40:06 PM 37.8428 -92.6839 226° Southwest 412 474 40,000  Level Kansas City Center
Wed 07:41:08 PM 37.7553 -92.8008 227° Southwest 411 473 40,000  Level Kansas City Center
Wed 07:42:10 PM 37.6764 -92.9067 227° Southwest 413 475 40,000  Level Kansas City Center
Wed 07:43:11 PM 37.5967 -93.0117 226° Southwest 413 475 40,000  Level Kansas City Center
Wed 07:44:13 PM 37.5175 -93.1208 228° Southwest 419 482 40,000  Level Kansas City Center
Wed 07:45:15 PM 37.4356 -93.2289 226° Southwest 424 488 40,000  Level Kansas City Center
Wed 07:46:16 PM 37.3558 -93.3358 227° Southwest 421 484 40,000  Level Kansas City Center
Wed 07:47:18 PM 37.3056 -93.5022 249° West 424 488 40,000 -242 Level Kansas City Center
Wed 07:48:20 PM 37.2650 -93.6353 249° West 413 475 39,500 -732 Descending Kansas City Center
Wed 07:49:21 PM 37.2231 -93.7622 247° West 398 458 38,500 -976 Descending Kansas City Center
Wed 07:50:23 PM 37.1817 -93.8933 248° West 401 461 37,500 -1,161 Descending Kansas City Center
Wed 07:51:25 PM 37.1417 -94.0219 249° West 398 458 36,100 -1,317 Descending Kansas City Center
Wed 07:52:26 PM 37.1033 -94.1419 248° West 398 458 34,800 -1,317 Descending Kansas City Center
Wed 07:53:28 PM 37.0536 -94.3008 249° West 405 466 33,400 -1,171 Descending Kansas City Center
Wed 07:54:29 PM 37.0114 -94.4333 248° West 410 472 32,400 -976 Descending Kansas City Center
Wed 07:55:31 PM 36.9689 -94.5681 248° West 415 478 31,400 -1,839 Descending Kansas City Center
Wed 07:56:33 PM 36.9633 -94.7075 267° West 413 475 28,600 -2,683 Descending Kansas City Center
Wed 07:57:34 PM 36.9636 -94.8428 270° West 398 458 25,900 -2,341 Descending Kansas City Center
Wed 07:58:36 PM 36.8961 -94.9436 230° Southwest 382 440 23,800 -2,468 Descending Kansas City Center
Wed 07:59:38 PM 36.8189 -95.0358 224° Southwest 382 440 20,800 -2,829 Descending Kansas City Center
Wed 08:00:39 PM 36.7311 -95.1436 225° Southwest 373 429 18,000 -2,545 Descending Kansas City Center
Wed 08:01:17 PM 36.6900 -95.1914 223° Southwest 354 407 16,600 -2,129 Descending Kansas City Center
Wed 08:01:41 PM 36.6619 -95.2275 226° Southwest 356 410 15,800 -2,239 Descending Kansas City Center
Wed 08:02:24 PM 36.6128 -95.2881 225° Southwest 339 390 14,100 -2,129 Descending Kansas City Center
Wed 08:02:43 PM 36.5953 -95.3086 223° Southwest 341 392 13,600 -2,164 Descending Kansas City Center
Wed 08:03:25 PM 36.5531 -95.3717 230° Southwest 325 374 11,900 -2,164 Descending Kansas City Center
Wed 08:03:44 PM 36.5419 -95.3964 241° Southwest 333 383 11,400 -1,200 Descending Kansas City Center
Wed 08:04:25 PM 36.5136 -95.4708 245° Southwest 322 371 10,700 -968 Descending Kansas City Center
Wed 08:04:46 PM 36.5042 -95.4928 242° Southwest 320 368 10,400 -885 Descending Kansas City Center
Wed 08:05:26 PM 36.4778 -95.5639 245° Southwest 300 345 9,800 -885 Descending Kansas City Center
Wed 08:05:47 PM 36.4697 -95.5806 239° Southwest 292 336 9,500 -1,279 Descending Kansas City Center
Wed 08:06:27 PM 36.4450 -95.6464 245° Southwest 264 304 8,500 -1,548 Descending Kansas City Center
Wed 08:06:49 PM 36.4333 -95.6800 247° West 269 310 7,900 -1,600 Descending Kansas City Center
Wed 08:07:27 PM 36.4150 -95.7361 248° West 257 296 6,900 -1,355 Descending Kansas City Center
Wed 08:07:51 PM 36.4064 -95.7619 248° West 260 299 6,500 -1,091 Descending Kansas City Center
Wed 08:08:22 PM 36.3936 -95.8036 249° West 250 288 5,900 -590 Descending Kansas City Center
Wed 08:08:52 PM 36.3822 -95.8397 249° West 248 285 5,900 -200 Level Kansas City Center
Wed 08:09:22 PM 36.3692 -95.8847 250° West 232 267 5,700 -1,258 Descending Kansas City Center
Wed 08:09:54 PM 36.3592 -95.9156 248° West 238 274 4,600 -2,066 Descending Kansas City Center
Wed 08:10:23 PM 36.3375 -95.9589 238° Southwest 252 290 3,600 -1,672 Descending Kansas City Center
Wed 08:10:55 PM 36.3111 -95.9703 199° South 246 283 2,900 -885 Descending Kansas City Center
Wed 08:11:24 PM 36.2772 -95.9900 205° Southwest 233 268 2,700 -194 Descending Kansas City Center
Wed 08:11:57 PM 36.2522 -96.0006 199° South 239 275 2,700  Level Kansas City Center
Wed 08:12:24 PM 36.2242 -96.0044 186° South 179 206 2,700 -197 Level Kansas City Center
Wed 08:12:58 PM 36.2044 -95.9997 169° South 197 227 2,500 -787 Descending Kansas City Center
Wed 08:13:25 PM 36.1942 -95.9747 117° Southeast 143 165 1,900 -968 Descending Kansas City Center
Wed 08:14:00 PM 36.1947 -95.9522 88° East 165 190 1,500 -800 Descending Kansas City Center
Wed 08:14:25 PM 36.1942 -95.9256 91° East 134 154 1,100 -689 Descending Kansas City Center
Wed 08:15:01 PM 36.1950 -95.9031 87° East 150 173 800 -500 Descending Kansas City Center

Login

Don't have an account? Register now (free) for customized features, flight alerts, and more!